createdAt,value
2023-06-28T00:01:53.713Z,17.10
2023-06-28T00:04:20.524Z,17.08
2023-06-28T00:06:47.281Z,17.04
2023-06-28T00:09:13.854Z,16.96
2023-06-28T00:11:40.477Z,16.96
2023-06-28T00:14:07.081Z,16.95
2023-06-28T00:16:33.652Z,16.88
2023-06-28T00:19:01.594Z,16.78
2023-06-28T00:21:28.964Z,16.73
2023-06-28T00:23:55.979Z,16.65
2023-06-28T00:26:22.798Z,16.56
2023-06-28T00:28:49.463Z,16.61
2023-06-28T00:31:16.246Z,16.45
2023-06-28T00:33:42.921Z,16.55
2023-06-28T00:36:09.531Z,16.58
2023-06-28T00:38:37.240Z,16.43
2023-06-28T00:41:04.829Z,16.42
2023-06-28T00:43:33.155Z,16.27
2023-06-28T00:45:59.732Z,16.24
2023-06-28T00:48:27.152Z,16.22
2023-06-28T00:50:55.002Z,16.22
2023-06-28T00:53:22.317Z,16.15
2023-06-28T00:55:49.170Z,16.09
2023-06-28T00:58:15.998Z,15.97
2023-06-28T01:00:46.043Z,15.89
2023-06-28T01:03:12.857Z,15.86
2023-06-28T01:05:39.596Z,15.85
2023-06-28T01:08:07.188Z,15.88
2023-06-28T01:10:38.049Z,15.90
2023-06-28T01:13:07.496Z,15.92
2023-06-28T01:15:34.216Z,15.90
2023-06-28T01:18:02.649Z,15.73
2023-06-28T01:20:32.147Z,15.61
2023-06-28T01:22:59.500Z,15.67
2023-06-28T01:25:26.169Z,15.62
2023-06-28T01:27:55.693Z,15.71
2023-06-28T01:30:24.797Z,15.68
2023-06-28T01:32:52.176Z,15.62
2023-06-28T01:35:18.891Z,15.53
2023-06-28T01:37:46.033Z,15.59
2023-06-28T01:40:14.397Z,15.29
2023-06-28T01:42:41.829Z,15.28
2023-06-28T01:45:08.992Z,15.30
2023-06-28T01:47:35.961Z,15.36
2023-06-28T01:50:02.900Z,15.44
2023-06-28T01:52:30.139Z,15.37
2023-06-28T01:54:58.039Z,15.36
2023-06-28T01:57:24.710Z,15.36
2023-06-28T01:59:51.766Z,15.32
2023-06-28T02:02:21.577Z,15.33
2023-06-28T02:04:49.214Z,15.36
2023-06-28T02:07:15.836Z,15.38
2023-06-28T02:09:45.323Z,15.40
2023-06-28T02:12:11.941Z,15.35
2023-06-28T02:14:40.324Z,15.39
2023-06-28T02:17:14.748Z,15.38
2023-06-28T02:19:42.255Z,15.33
2023-06-28T02:22:09.488Z,15.16
2023-06-28T02:24:36.148Z,15.08
2023-06-28T02:27:02.756Z,15.09
2023-06-28T02:29:29.851Z,15.12
2023-06-28T02:31:58.631Z,15.15
2023-06-28T02:34:25.882Z,15.19
2023-06-28T02:36:54.453Z,15.16
2023-06-28T02:39:21.221Z,15.23
2023-06-28T02:41:47.864Z,15.16
2023-06-28T02:44:15.859Z,14.99
2023-06-28T02:46:43.419Z,14.95
2023-06-28T02:49:10.395Z,14.91
2023-06-28T02:51:37.046Z,14.94
2023-06-28T02:54:05.749Z,14.96
2023-06-28T02:56:34.960Z,15.03
2023-06-28T02:59:21.848Z,14.96
2023-06-28T03:01:51.199Z,14.87
2023-06-28T03:04:17.808Z,14.86
2023-06-28T03:06:50.260Z,14.96
2023-06-28T03:09:17.538Z,14.95
2023-06-28T03:11:44.131Z,14.85
2023-06-28T03:14:11.727Z,14.78
2023-06-28T03:16:38.563Z,14.72
2023-06-28T03:19:09.228Z,14.71
2023-06-28T03:21:35.918Z,14.67
2023-06-28T03:24:03.470Z,14.73
2023-06-28T03:26:30.608Z,14.76
2023-06-28T03:28:59.419Z,14.75
2023-06-28T03:31:27.854Z,14.76
2023-06-28T03:33:55.009Z,14.75
2023-06-28T03:36:21.677Z,14.79
2023-06-28T03:38:48.310Z,14.84
2023-06-28T03:41:15.627Z,14.80
2023-06-28T03:43:42.741Z,14.80
2023-06-28T03:46:09.450Z,14.83
2023-06-28T03:48:36.091Z,14.80
2023-06-28T03:51:03.606Z,14.89
2023-06-28T03:53:30.242Z,14.93
2023-06-28T03:55:59.299Z,14.95
2023-06-28T03:58:25.973Z,14.85
2023-06-28T04:00:53.971Z,14.90
2023-06-28T04:03:20.788Z,14.88
2023-06-28T04:05:47.440Z,14.94
2023-06-28T04:08:14.085Z,14.97
2023-06-28T04:10:40.903Z,14.96
2023-06-28T04:13:07.687Z,14.96
2023-06-28T04:15:34.282Z,15.04
2023-06-28T04:18:00.956Z,15.04
2023-06-28T04:20:27.654Z,15.05
2023-06-28T04:22:54.336Z,15.07
2023-06-28T04:25:20.898Z,15.16
2023-06-28T04:27:47.462Z,15.26
2023-06-28T04:30:14.901Z,15.32
2023-06-28T04:32:43.978Z,15.39
2023-06-28T04:35:11.995Z,15.41
2023-06-28T04:37:39.699Z,15.52
2023-06-28T04:40:07.062Z,15.51
2023-06-28T04:42:33.592Z,15.62
2023-06-28T04:45:00.701Z,15.72
2023-06-28T04:47:28.783Z,15.83
2023-06-28T04:49:56.000Z,16.00
2023-06-28T04:52:24.228Z,15.94
2023-06-28T04:54:51.242Z,16.03
2023-06-28T04:57:18.537Z,16.04
2023-06-28T04:59:45.185Z,16.00
2023-06-28T05:02:11.819Z,15.90
2023-06-28T05:04:38.935Z,15.81
2023-06-28T05:07:07.027Z,15.66
2023-06-28T05:09:34.778Z,15.74
2023-06-28T05:12:02.971Z,15.91
2023-06-28T05:14:30.915Z,16.01
2023-06-28T05:16:58.177Z,16.00
2023-06-28T05:19:25.744Z,16.06
2023-06-28T05:21:52.572Z,16.11
2023-06-28T05:24:20.037Z,16.22
2023-06-28T05:26:47.240Z,16.30
2023-06-28T05:29:14.391Z,16.34
2023-06-28T05:31:43.199Z,16.28
2023-06-28T05:34:09.898Z,16.28
2023-06-28T05:36:36.546Z,16.38
2023-06-28T05:39:03.710Z,16.49
2023-06-28T05:41:30.297Z,16.43
2023-06-28T05:43:56.908Z,16.41
2023-06-28T05:46:23.491Z,16.30
2023-06-28T05:48:51.505Z,16.43
2023-06-28T05:51:18.152Z,16.43
2023-06-28T05:53:44.793Z,16.67
2023-06-28T05:56:11.590Z,16.66
2023-06-28T05:58:38.192Z,16.81
2023-06-28T06:01:04.749Z,16.81
2023-06-28T06:03:31.801Z,17.17
2023-06-28T06:05:59.013Z,17.21
2023-06-28T06:08:25.563Z,17.11
2023-06-28T06:10:52.205Z,17.14
2023-06-28T06:13:18.792Z,17.30
2023-06-28T06:15:45.513Z,17.06
2023-06-28T06:18:12.155Z,17.25
2023-06-28T06:20:38.718Z,17.40
2023-06-28T06:23:05.277Z,17.65
2023-06-28T06:25:32.108Z,17.75
2023-06-28T06:27:58.750Z,17.78
2023-06-28T06:30:25.598Z,17.72
2023-06-28T06:32:52.519Z,17.85
2023-06-28T06:35:19.148Z,17.95
2023-06-28T06:37:47.171Z,18.10
2023-06-28T06:40:14.370Z,18.12
2023-06-28T06:42:41.048Z,18.23
2023-06-28T06:45:08.211Z,17.98
2023-06-28T06:47:39.174Z,18.00
2023-06-28T06:50:06.691Z,18.29
2023-06-28T06:52:33.420Z,18.30
2023-06-28T06:54:59.982Z,18.08
2023-06-28T06:57:26.730Z,18.34
2023-06-28T06:59:53.305Z,18.62
2023-06-28T07:02:20.958Z,18.76
2023-06-28T07:04:47.822Z,19.02
2023-06-28T07:07:14.592Z,19.15
2023-06-28T07:09:41.203Z,19.19
2023-06-28T07:12:08.529Z,19.31
2023-06-28T07:14:35.147Z,19.22
2023-06-28T07:17:01.754Z,19.47
2023-06-28T07:19:28.342Z,19.50
2023-06-28T07:21:54.891Z,19.47
2023-06-28T07:24:21.463Z,19.60
2023-06-28T07:26:48.023Z,19.30
2023-06-28T07:29:14.652Z,19.43
2023-06-28T07:31:41.582Z,19.30
2023-06-28T07:34:09.975Z,19.31
2023-06-28T07:36:36.591Z,19.39
2023-06-28T07:39:03.294Z,19.42
2023-06-28T07:41:29.996Z,19.44
2023-06-28T07:43:56.566Z,19.31
2023-06-28T07:46:23.208Z,19.49
2023-06-28T07:48:52.078Z,19.62
2023-06-28T07:51:18.811Z,19.79
2023-06-28T07:53:47.205Z,19.68
2023-06-28T07:56:14.651Z,19.94
2023-06-28T07:58:41.276Z,19.79
2023-06-28T08:01:07.994Z,20.22
2023-06-28T08:03:34.620Z,20.30
2023-06-28T08:06:01.260Z,20.24
2023-06-28T08:08:27.885Z,20.37
2023-06-28T08:10:54.527Z,19.95
2023-06-28T08:13:21.885Z,20.17
2023-06-28T08:15:48.465Z,20.07
2023-06-28T08:18:17.289Z,20.07
2023-06-28T08:20:48.491Z,20.34
2023-06-28T08:23:18.203Z,20.14
2023-06-28T08:25:44.972Z,20.33
2023-06-28T08:28:11.752Z,20.45
2023-06-28T08:30:39.723Z,20.18
2023-06-28T08:33:06.627Z,20.53
2023-06-28T08:35:33.357Z,20.86
2023-06-28T08:37:59.961Z,20.80
2023-06-28T08:40:30.439Z,20.53
2023-06-28T08:43:04.210Z,20.65
2023-06-28T08:45:35.897Z,20.79
2023-06-28T08:48:13.023Z,20.43
2023-06-28T08:50:51.726Z,20.73
2023-06-28T08:53:21.213Z,20.86
2023-06-28T08:55:48.949Z,21.03
2023-06-28T08:58:16.524Z,21.23
2023-06-28T09:00:45.594Z,20.97
2023-06-28T09:03:15.167Z,21.24
2023-06-28T09:05:43.922Z,21.44
2023-06-28T09:08:10.930Z,21.64
2023-06-28T09:10:40.012Z,21.72
2023-06-28T09:13:07.615Z,21.64
2023-06-28T09:15:36.492Z,21.72
2023-06-28T09:18:03.358Z,21.96
2023-06-28T09:20:30.051Z,22.10
2023-06-28T09:23:01.114Z,22.33
2023-06-28T09:25:30.571Z,22.54
2023-06-28T09:27:57.801Z,22.69
2023-06-28T09:30:42.805Z,22.74
2023-06-28T09:33:10.027Z,22.90
2023-06-28T09:35:40.244Z,22.43
2023-06-28T09:38:10.096Z,22.35
2023-06-28T09:40:37.038Z,22.38
2023-06-28T09:43:04.475Z,22.27
2023-06-28T09:45:38.011Z,22.36
2023-06-28T09:48:05.996Z,22.57
2023-06-28T09:50:44.103Z,22.82
2023-06-28T09:53:18.561Z,23.21
2023-06-28T09:55:46.762Z,23.42
2023-06-28T09:58:16.041Z,23.29
2023-06-28T10:00:44.320Z,23.15
2023-06-28T10:03:13.047Z,23.25
2023-06-28T10:05:41.998Z,23.22
2023-06-28T10:08:16.537Z,22.68
2023-06-28T10:10:44.839Z,22.85
2023-06-28T10:13:14.895Z,23.32
2023-06-28T10:16:04.540Z,23.65
2023-06-28T10:18:31.537Z,23.74
2023-06-28T10:21:00.471Z,23.53
2023-06-28T10:23:27.551Z,23.46
2023-06-28T10:25:55.951Z,23.46
2023-06-28T10:28:22.571Z,23.19
2023-06-28T10:30:49.399Z,23.16
2023-06-28T10:33:16.717Z,23.39
2023-06-28T10:35:46.428Z,23.68
2023-06-28T10:38:13.683Z,23.92
2023-06-28T10:40:40.596Z,23.78
2023-06-28T10:43:07.331Z,23.88
2023-06-28T10:45:35.436Z,23.45
2023-06-28T10:48:04.358Z,23.31
2023-06-28T10:50:42.817Z,23.89
2023-06-28T10:53:23.675Z,24.37
2023-06-28T10:56:22.872Z,23.90
2023-06-28T10:58:55.150Z,24.00
2023-06-28T11:01:37.552Z,24.35
2023-06-28T11:04:13.562Z,24.29
2023-06-28T11:06:41.199Z,24.28
2023-06-28T11:09:17.026Z,24.46
2023-06-28T11:11:55.583Z,24.56
2023-06-28T11:14:23.962Z,24.98
2023-06-28T11:16:51.225Z,24.58
2023-06-28T11:19:20.557Z,23.21
2023-06-28T11:21:58.456Z,23.22
2023-06-28T11:24:36.091Z,23.39
2023-06-28T11:27:10.002Z,23.52
2023-06-28T11:29:57.834Z,23.63
2023-06-28T11:32:29.573Z,23.63
2023-06-28T11:34:59.396Z,23.85
2023-06-28T11:37:26.684Z,23.89
2023-06-28T11:39:53.748Z,23.93
2023-06-28T11:42:21.181Z,24.18
2023-06-28T11:44:50.176Z,24.05
2023-06-28T11:47:21.946Z,24.18
2023-06-28T11:49:50.576Z,24.31
2023-06-28T11:52:18.451Z,24.49
2023-06-28T11:54:45.172Z,24.45
2023-06-28T11:57:12.061Z,24.25
2023-06-28T11:59:45.457Z,24.50
2023-06-28T12:02:12.597Z,24.40
2023-06-28T12:04:39.924Z,24.08
2023-06-28T12:07:07.471Z,24.35
2023-06-28T12:09:36.938Z,24.69
2023-06-28T12:12:05.950Z,24.62
2023-06-28T12:14:40.889Z,24.42
2023-06-28T12:17:07.804Z,24.47
2023-06-28T12:19:36.438Z,24.90
2023-06-28T12:22:07.667Z,25.00
2023-06-28T12:24:36.127Z,24.83
2023-06-28T12:27:09.936Z,24.66
2023-06-28T12:29:38.022Z,24.85
2023-06-28T12:32:06.984Z,24.50
2023-06-28T12:34:39.355Z,24.87
2023-06-28T12:37:08.564Z,25.16
2023-06-28T12:39:36.182Z,24.99
2023-06-28T12:42:02.845Z,24.78
2023-06-28T12:44:31.461Z,24.52
2023-06-28T12:46:58.039Z,24.36
2023-06-28T12:49:37.760Z,24.28
2023-06-28T12:52:05.004Z,24.48
2023-06-28T12:54:31.779Z,24.30
2023-06-28T12:57:01.008Z,24.71
2023-06-28T12:59:28.666Z,24.58
2023-06-28T13:01:55.493Z,24.93
2023-06-28T13:04:22.473Z,25.12
2023-06-28T13:06:49.442Z,24.58
2023-06-28T13:09:16.022Z,24.41
2023-06-28T13:11:42.663Z,24.34
2023-06-28T13:14:09.272Z,24.30
2023-06-28T13:16:36.325Z,24.47
2023-06-28T13:19:02.884Z,24.73
2023-06-28T13:21:29.576Z,24.60
2023-06-28T13:23:56.319Z,24.55
2023-06-28T13:26:22.884Z,24.46
2023-06-28T13:28:49.661Z,24.34
2023-06-28T13:31:16.480Z,24.16
2023-06-28T13:33:43.139Z,24.46
2023-06-28T13:36:11.135Z,24.06
2023-06-28T13:38:38.580Z,24.00
2023-06-28T13:41:05.980Z,24.06
2023-06-28T13:43:32.668Z,24.22
2023-06-28T13:45:59.386Z,24.40
2023-06-28T13:48:26.047Z,24.52
2023-06-28T13:50:52.672Z,24.39
2023-06-28T13:53:19.508Z,24.21
2023-06-28T13:55:46.274Z,24.50
2023-06-28T13:58:12.993Z,24.53
2023-06-28T14:00:39.645Z,24.73
2023-06-28T14:03:06.418Z,24.54
2023-06-28T14:05:33.394Z,24.80
2023-06-28T14:08:00.119Z,25.18
2023-06-28T14:10:28.120Z,24.52
2023-06-28T14:12:54.754Z,24.18
2023-06-28T14:15:22.536Z,24.45
2023-06-28T14:17:49.172Z,24.66
2023-06-28T14:20:16.349Z,24.37
2023-06-28T14:22:48.578Z,24.48
2023-06-28T14:25:15.486Z,24.28
2023-06-28T14:27:42.156Z,24.47
2023-06-28T14:30:09.307Z,24.29
2023-06-28T14:32:36.109Z,24.40
2023-06-28T14:35:02.756Z,24.41
2023-06-28T14:37:29.388Z,24.61
2023-06-28T14:39:55.965Z,24.60
2023-06-28T14:42:22.541Z,24.50
2023-06-28T14:44:49.162Z,24.29
2023-06-28T14:47:16.655Z,24.28
2023-06-28T14:49:43.433Z,24.40
2023-06-28T14:52:10.540Z,24.44
2023-06-28T14:54:37.209Z,24.56
2023-06-28T14:57:05.338Z,24.26
2023-06-28T14:59:32.033Z,24.40
2023-06-28T15:02:01.657Z,24.35
2023-06-28T15:04:28.933Z,23.92
2023-06-28T15:06:56.012Z,24.24
2023-06-28T15:09:22.792Z,24.12
2023-06-28T15:11:49.387Z,23.14
2023-06-28T15:14:16.081Z,23.44
2023-06-28T15:16:48.919Z,23.30
2023-06-28T15:19:15.737Z,23.31
2023-06-28T15:21:42.418Z,23.46
2023-06-28T15:24:09.260Z,23.60
2023-06-28T15:26:37.286Z,23.52
2023-06-28T15:29:04.061Z,23.73
2023-06-28T15:31:31.955Z,23.56
2023-06-28T15:34:01.788Z,23.55
2023-06-28T15:36:28.435Z,23.45
2023-06-28T15:38:55.244Z,23.42
2023-06-28T15:41:21.884Z,23.59
2023-06-28T15:43:48.620Z,23.32
2023-06-28T15:46:15.323Z,23.48
2023-06-28T15:48:42.085Z,23.41
2023-06-28T15:51:08.681Z,23.35
2023-06-28T15:53:35.354Z,23.33
2023-06-28T15:56:02.144Z,23.31
2023-06-28T15:58:28.739Z,23.65
2023-06-28T16:00:57.654Z,23.44
2023-06-28T16:03:24.489Z,23.49
2023-06-28T16:05:51.247Z,23.34
2023-06-28T16:08:18.204Z,23.43
2023-06-28T16:10:44.970Z,23.46
2023-06-28T16:13:14.802Z,23.10
2023-06-28T16:15:44.460Z,23.38
2023-06-28T16:18:11.176Z,23.20
2023-06-28T16:20:37.809Z,23.25
2023-06-28T16:23:04.489Z,23.33
2023-06-28T16:25:31.177Z,23.40
2023-06-28T16:27:59.067Z,23.39
2023-06-28T16:30:28.957Z,23.48
2023-06-28T16:32:57.401Z,23.32
2023-06-28T16:35:23.998Z,23.12
2023-06-28T16:37:51.139Z,23.10
2023-06-28T16:40:17.866Z,22.93
2023-06-28T16:42:44.610Z,23.14
2023-06-28T16:45:11.465Z,23.14
2023-06-28T16:47:38.231Z,23.09
2023-06-28T16:50:05.545Z,23.02
2023-06-28T16:52:32.156Z,22.99
2023-06-28T16:55:00.244Z,22.94
2023-06-28T16:57:26.960Z,22.95
2023-06-28T16:59:53.951Z,22.94
2023-06-28T17:02:20.627Z,22.79
2023-06-28T17:04:47.340Z,22.85
2023-06-28T17:07:14.083Z,22.75
2023-06-28T17:09:41.140Z,22.94
2023-06-28T17:12:08.135Z,22.82
2023-06-28T17:14:34.829Z,22.77
2023-06-28T17:17:01.425Z,22.82
2023-06-28T17:19:28.030Z,22.44
2023-06-28T17:21:54.641Z,22.47
2023-06-28T17:24:21.593Z,22.59
2023-06-28T17:26:55.174Z,22.49
2023-06-28T17:29:21.760Z,22.57
2023-06-28T17:31:48.421Z,22.62
2023-06-28T17:34:16.419Z,22.45
2023-06-28T17:36:47.612Z,22.61
2023-06-28T17:39:15.767Z,22.76
2023-06-28T17:41:42.466Z,22.58
2023-06-28T17:44:09.367Z,22.55
2023-06-28T17:46:36.913Z,22.71
2023-06-28T17:49:03.732Z,22.72
2023-06-28T17:51:30.445Z,22.73
2023-06-28T17:53:57.062Z,22.44
2023-06-28T17:56:23.659Z,22.55
2023-06-28T17:58:50.225Z,22.44
2023-06-28T18:01:17.002Z,22.56
2023-06-28T18:03:43.692Z,22.34
2023-06-28T18:06:10.357Z,22.26
2023-06-28T18:08:37.042Z,22.26
2023-06-28T18:11:03.713Z,22.20
2023-06-28T18:13:33.373Z,22.24
2023-06-28T18:16:00.313Z,22.16
2023-06-28T18:18:26.976Z,22.25
2023-06-28T18:20:53.599Z,21.99
2023-06-28T18:23:20.203Z,22.11
2023-06-28T18:25:46.850Z,22.23
2023-06-28T18:28:13.451Z,22.12
2023-06-28T18:30:40.150Z,22.22
2023-06-28T18:33:07.155Z,22.28
2023-06-28T18:35:34.708Z,22.27
2023-06-28T18:38:02.182Z,22.17
2023-06-28T18:40:28.752Z,22.24
2023-06-28T18:42:55.507Z,22.22
2023-06-28T18:45:22.157Z,22.07
2023-06-28T18:47:48.871Z,21.91
2023-06-28T18:50:15.761Z,21.90
2023-06-28T18:52:42.476Z,21.98
2023-06-28T18:55:12.770Z,21.89
2023-06-28T18:57:39.435Z,22.05
2023-06-28T19:00:06.674Z,21.95
2023-06-28T19:02:34.177Z,22.07
2023-06-28T19:05:00.846Z,22.04
2023-06-28T19:07:27.502Z,22.04
2023-06-28T19:09:54.164Z,22.10
2023-06-28T19:12:20.766Z,22.13
2023-06-28T19:14:47.508Z,22.08
2023-06-28T19:17:14.104Z,22.15
2023-06-28T19:19:40.659Z,21.99
2023-06-28T19:22:08.469Z,22.06
2023-06-28T19:24:35.060Z,21.99
2023-06-28T19:27:01.782Z,21.97
2023-06-28T19:29:28.476Z,22.04
2023-06-28T19:31:55.082Z,22.01
2023-06-28T19:34:21.769Z,22.07
2023-06-28T19:36:48.363Z,21.92
2023-06-28T19:39:15.080Z,21.97
2023-06-28T19:41:41.738Z,21.93
2023-06-28T19:44:08.388Z,21.94
2023-06-28T19:46:34.964Z,21.98
2023-06-28T19:49:01.829Z,21.92
2023-06-28T19:51:28.484Z,21.94
2023-06-28T19:53:55.218Z,21.95
2023-06-28T19:56:22.211Z,21.81
2023-06-28T19:58:49.040Z,21.73
2023-06-28T20:01:15.929Z,21.79
2023-06-28T20:03:42.813Z,21.74
2023-06-28T20:06:10.150Z,21.76
2023-06-28T20:08:36.909Z,21.86
2023-06-28T20:11:03.740Z,21.93
2023-06-28T20:13:32.332Z,21.96
2023-06-28T20:15:59.527Z,21.95
2023-06-28T20:18:26.456Z,21.87
2023-06-28T20:20:53.855Z,21.71
2023-06-28T20:23:20.853Z,21.67
2023-06-28T20:25:48.448Z,21.57
2023-06-28T20:28:15.430Z,21.63
2023-06-28T20:30:42.112Z,21.69
2023-06-28T20:33:10.310Z,21.64
2023-06-28T20:35:37.477Z,21.69
2023-06-28T20:38:04.495Z,21.66
2023-06-28T20:40:31.287Z,21.76
2023-06-28T20:43:00.005Z,21.80
2023-06-28T20:45:26.830Z,21.83
2023-06-28T20:47:53.587Z,21.81
2023-06-28T20:50:20.259Z,21.78
2023-06-28T20:52:47.055Z,21.74
2023-06-28T20:55:13.679Z,21.76
2023-06-28T20:57:40.611Z,21.67
2023-06-28T21:00:13.701Z,21.67
2023-06-28T21:02:40.723Z,21.69
2023-06-28T21:05:09.387Z,21.61
2023-06-28T21:07:36.668Z,21.55
2023-06-28T21:10:03.946Z,21.64
2023-06-28T21:12:32.870Z,21.59
2023-06-28T21:14:59.805Z,21.55
2023-06-28T21:17:26.787Z,21.56
2023-06-28T21:19:53.612Z,21.57
2023-06-28T21:22:22.111Z,21.64
2023-06-28T21:24:49.624Z,21.70
2023-06-28T21:27:16.779Z,21.73
2023-06-28T21:29:43.653Z,21.60
2023-06-28T21:32:10.568Z,21.56
2023-06-28T21:34:45.002Z,21.48
2023-06-28T21:37:13.137Z,21.48
2023-06-28T21:39:40.920Z,21.47
2023-06-28T21:42:08.732Z,21.42
2023-06-28T21:44:35.464Z,21.42
2023-06-28T21:47:02.088Z,21.48
2023-06-28T21:49:28.806Z,21.45
2023-06-28T21:51:57.303Z,21.45
2023-06-28T21:54:24.062Z,21.32
2023-06-28T21:56:50.794Z,21.29
2023-06-28T21:59:17.394Z,21.29
2023-06-28T22:01:44.454Z,21.25
2023-06-28T22:04:11.296Z,21.30
2023-06-28T22:06:40.231Z,21.26
2023-06-28T22:09:09.513Z,21.21
2023-06-28T22:11:36.122Z,21.19
2023-06-28T22:14:05.667Z,21.24
2023-06-28T22:16:34.918Z,21.23
2023-06-28T22:19:02.050Z,21.18
2023-06-28T22:21:28.786Z,21.21
2023-06-28T22:23:56.154Z,21.14
2023-06-28T22:26:23.867Z,21.14
2023-06-28T22:28:50.466Z,21.01
2023-06-28T22:31:17.252Z,20.99
2023-06-28T22:33:44.002Z,21.12
2023-06-28T22:36:10.962Z,21.04
2023-06-28T22:38:48.090Z,21.00
2023-06-28T22:41:18.055Z,21.09
2023-06-28T22:43:44.795Z,21.15
2023-06-28T22:46:11.608Z,21.06
2023-06-28T22:48:38.244Z,21.06
2023-06-28T22:51:06.764Z,21.13
2023-06-28T22:53:34.455Z,21.25
2023-06-28T22:56:01.353Z,21.24
2023-06-28T22:58:27.974Z,21.19
2023-06-28T23:00:56.064Z,21.18
2023-06-28T23:03:25.222Z,20.93
2023-06-28T23:05:53.607Z,20.96
2023-06-28T23:08:23.338Z,20.91
2023-06-28T23:10:51.045Z,21.04
2023-06-28T23:13:20.477Z,20.98
2023-06-28T23:15:48.900Z,20.92
2023-06-28T23:18:21.420Z,20.97
2023-06-28T23:20:52.007Z,21.08
2023-06-28T23:23:19.990Z,21.08
2023-06-28T23:25:53.740Z,21.08
2023-06-28T23:28:21.800Z,20.95
2023-06-28T23:30:49.924Z,20.93
2023-06-28T23:33:16.987Z,20.85
2023-06-28T23:35:46.826Z,20.89
2023-06-28T23:38:14.184Z,20.90
2023-06-28T23:40:42.017Z,20.95
2023-06-28T23:43:09.018Z,20.99
2023-06-28T23:45:42.611Z,20.77
2023-06-28T23:48:09.866Z,20.83
2023-06-28T23:50:36.616Z,20.84
2023-06-28T23:53:03.407Z,20.81
2023-06-28T23:55:30.805Z,20.68
2023-06-28T23:57:57.985Z,20.74
